Time;durP1;ratioP1;P1;durP2;ratioP2;P2;SDS_P1;SDS_P2;PMS_P1;PMS_P2;Temp;Humidity;BMP_temperature;BMP_pressure;BME280_temperature;BME280_humidity;BME280_pressure;Samples;Min_cycle;Max_cycle;Signal;HPM_P1;HPM_P2
2023/03/08 00:01:38;;;;;;;9.03;5.07;;;4.30;99.90;;;;;;5013808;28;20233;-72
2023/03/08 00:04:04;;;;;;;10.53;5.57;;;4.30;99.90;;;;;;5014419;28;20193;-73
2023/03/08 00:06:29;;;;;;;7.60;5.03;;;4.30;99.90;;;;;;5013953;28;20190;-73
2023/03/08 00:09:01;;;;;;;11.97;6.10;;;4.30;99.90;;;;;;5009547;28;20217;-72
2023/03/08 00:11:27;;;;;;;6.80;5.10;;;4.40;99.90;;;;;;5010793;28;20237;-72
2023/03/08 00:13:54;;;;;;;10.57;6.93;;;4.40;99.90;;;;;;5011869;28;20432;-73
2023/03/08 00:16:19;;;;;;;8.17;5.27;;;4.40;99.90;;;;;;5013809;28;20416;-73
2023/03/08 00:18:45;;;;;;;11.63;5.80;;;4.40;99.90;;;;;;5013507;28;20422;-72
2023/03/08 00:21:13;;;;;;;9.70;5.50;;;4.50;99.90;;;;;;5012256;28;20730;-73
2023/03/08 00:23:39;;;;;;;10.20;5.53;;;4.50;99.90;;;;;;5012780;28;20193;-72
2023/03/08 00:26:05;;;;;;;9.00;6.27;;;4.50;99.90;;;;;;5013595;28;20428;-73
2023/03/08 00:28:31;;;;;;;10.73;6.50;;;4.60;99.90;;;;;;5012681;28;20838;-73
2023/03/08 00:31:03;;;;;;;10.67;5.87;;;4.50;99.90;;;;;;5006526;28;20734;-75
2023/03/08 00:33:29;;;;;;;8.30;4.97;;;4.50;99.90;;;;;;5013030;28;20183;-73
2023/03/08 00:36:03;;;;;;;11.50;7.07;;;4.50;99.90;;;;;;5013706;28;20423;-73
2023/03/08 00:38:34;;;;;;;16.07;7.70;;;4.50;99.90;;;;;;5013081;28;20417;-74
2023/03/08 00:41:00;;;;;;;16.60;6.77;;;4.50;99.90;;;;;;5013327;28;20480;-72
2023/03/08 00:43:25;;;;;;;13.50;7.07;;;4.50;99.90;;;;;;5013362;28;20851;-74
2023/03/08 00:45:51;;;;;;;13.63;6.60;;;4.50;99.90;;;;;;5013661;28;20194;-73
2023/03/08 00:48:17;;;;;;;17.13;7.53;;;4.50;99.90;;;;;;5013373;28;20493;-72
2023/03/08 00:50:42;;;;;;;12.03;6.93;;;4.50;99.90;;;;;;5012882;28;20646;-72
2023/03/08 00:53:09;;;;;;;15.80;8.20;;;4.50;99.90;;;;;;5013373;28;20185;-72
2023/03/08 00:55:35;;;;;;;7.77;5.80;;;4.50;99.90;;;;;;5013152;28;20190;-73
2023/03/08 00:58:01;;;;;;;15.17;7.83;;;4.50;99.90;;;;;;5012962;28;21091;-73
2023/03/08 01:00:26;;;;;;;9.60;6.40;;;4.60;99.90;;;;;;5012911;28;20205;-74
2023/03/08 01:02:52;;;;;;;10.43;6.37;;;4.50;99.90;;;;;;5011823;28;20197;-74
2023/03/08 01:05:18;;;;;;;13.80;7.63;;;4.50;99.90;;;;;;5013306;28;20202;-73
2023/03/08 01:07:43;;;;;;;18.87;8.17;;;4.50;99.90;;;;;;5012730;28;20425;-73
2023/03/08 01:10:10;;;;;;;11.20;7.13;;;4.50;99.90;;;;;;5012888;28;20611;-74
2023/03/08 01:12:35;;;;;;;12.03;8.00;;;4.40;99.90;;;;;;5012591;28;20208;-73
2023/03/08 01:15:03;;;;;;;11.07;7.37;;;4.30;99.90;;;;;;5012830;28;20421;-74
2023/03/08 01:17:28;;;;;;;12.43;7.37;;;4.30;99.90;;;;;;5012785;28;20555;-73
2023/03/08 01:19:54;;;;;;;13.80;8.43;;;4.20;99.90;;;;;;5012582;28;20429;-73
2023/03/08 01:22:19;;;;;;;11.90;7.00;;;4.20;99.90;;;;;;5012704;28;20205;-73
2023/03/08 01:24:46;;;;;;;12.97;8.10;;;4.10;99.90;;;;;;5012298;28;20187;-72
2023/03/08 01:27:12;;;;;;;13.67;7.77;;;4.10;99.90;;;;;;5012774;28;20725;-73
2023/03/08 01:29:37;;;;;;;20.13;8.67;;;4.00;99.90;;;;;;5012094;28;20471;-72
2023/03/08 01:32:03;;;;;;;12.57;8.30;;;3.90;99.90;;;;;;5012316;28;20468;-73
2023/03/08 01:34:29;;;;;;;12.27;8.43;;;3.90;99.90;;;;;;5012401;28;20269;-73
2023/03/08 01:36:54;;;;;;;11.53;8.10;;;3.90;99.90;;;;;;5012368;28;20235;-73
2023/03/08 01:39:20;;;;;;;18.60;8.47;;;3.80;99.90;;;;;;5012445;28;20194;-73
2023/03/08 01:41:45;;;;;;;13.50;7.90;;;3.80;99.90;;;;;;5011806;28;20581;-73
2023/03/08 01:44:19;;;;;;;13.07;8.40;;;3.80;99.90;;;;;;5012358;28;20181;-73
2023/03/08 01:46:45;;;;;;;17.90;9.17;;;3.70;99.90;;;;;;5011901;28;20195;-74
2023/03/08 01:49:16;;;;;;;14.20;8.70;;;3.70;99.90;;;;;;5012132;28;20996;-73
2023/03/08 01:51:43;;;;;;;13.77;8.40;;;3.60;99.90;;;;;;5011422;28;20293;-73
2023/03/08 01:54:14;;;;;;;17.60;9.20;;;3.60;99.90;;;;;;5012229;28;20420;-72
2023/03/08 01:56:41;;;;;;;12.37;8.00;;;3.60;99.90;;;;;;5011797;28;20418;-73
2023/03/08 01:59:07;;;;;;;18.07;8.77;;;3.60;99.90;;;;;;5012064;28;20502;-73
2023/03/08 03:32:10;;;;;;;14.10;7.90;;;3.90;99.90;;;;;;5304691;22;20492;-72
2023/03/08 03:34:36;;;;;;;12.07;6.93;;;3.80;99.90;;;;;;5023743;28;20435;-73
2023/03/08 03:37:02;;;;;;;14.50;8.40;;;3.90;99.90;;;;;;5022733;28;20195;-73
2023/03/08 03:39:32;;;;;;;23.40;9.10;;;3.90;99.90;;;;;;5022607;28;20215;-73
2023/03/08 03:41:59;;;;;;;14.50;7.10;;;3.90;99.90;;;;;;5025448;28;20451;-73
2023/03/08 03:44:24;;;;;;;15.07;8.50;;;4.00;99.90;;;;;;5019282;28;20838;-72
2023/03/08 03:46:50;;;;;;;13.77;7.90;;;3.90;99.90;;;;;;5024447;28;20437;-73
2023/03/08 03:49:15;;;;;;;12.00;7.13;;;4.00;99.90;;;;;;5025577;28;20224;-73
2023/03/08 03:51:41;;;;;;;11.40;7.20;;;3.90;99.90;;;;;;5024587;28;20213;-73
2023/03/08 03:54:06;;;;;;;15.40;8.07;;;3.90;99.90;;;;;;5022349;28;20186;-73
2023/03/08 03:56:32;;;;;;;12.33;7.10;;;3.80;99.90;;;;;;5022364;28;20294;-73
2023/03/08 03:58:57;;;;;;;14.57;7.67;;;3.80;99.90;;;;;;5023712;28;20267;-73
2023/03/08 04:01:26;;;;;;;16.60;9.03;;;3.80;99.90;;;;;;5024918;28;20208;-73
2023/03/08 04:03:53;;;;;;;13.53;7.90;;;3.70;99.90;;;;;;5023073;28;20194;-73
2023/03/08 04:06:21;;;;;;;15.43;7.93;;;3.70;99.90;;;;;;5022185;28;20436;-72
2023/03/08 04:08:48;;;;;;;12.87;8.20;;;3.70;99.90;;;;;;5023209;28;20968;-72
2023/03/08 04:11:16;;;;;;;15.40;7.50;;;3.70;99.90;;;;;;5025455;28;20845;-72
2023/03/08 04:13:42;;;;;;;11.77;7.10;;;3.60;99.90;;;;;;5024330;28;20429;-72
2023/03/08 04:16:09;;;;;;;12.47;8.27;;;3.60;99.90;;;;;;5022180;28;20424;-72
2023/03/08 04:18:34;;;;;;;11.20;7.40;;;3.60;99.90;;;;;;5021915;28;20430;-73
2023/03/08 04:20:59;;;;;;;15.40;7.80;;;3.60;99.90;;;;;;5024652;28;20451;-73
2023/03/08 04:23:25;;;;;;;12.10;6.83;;;3.60;99.90;;;;;;5025204;28;20686;-73
2023/03/08 04:25:50;;;;;;;12.87;6.90;;;3.60;99.90;;;;;;5023045;28;20200;-72
2023/03/08 04:28:16;;;;;;;13.53;7.60;;;3.60;99.90;;;;;;5013826;28;20232;-72
2023/03/08 04:30:41;;;;;;;12.30;7.77;;;3.60;99.90;;;;;;5021552;28;20226;-72
2023/03/08 04:33:07;;;;;;;11.93;6.47;;;3.60;99.90;;;;;;5025172;28;20657;-72
2023/03/08 04:35:32;;;;;;;16.40;8.70;;;3.60;99.90;;;;;;5024863;28;20200;-72
2023/03/08 04:37:58;;;;;;;14.13;9.00;;;3.70;99.90;;;;;;5021997;28;20194;-72
2023/03/08 04:40:23;;;;;;;13.87;7.83;;;3.70;99.90;;;;;;5021276;28;20233;-73
2023/03/08 04:42:49;;;;;;;11.83;7.37;;;3.70;99.90;;;;;;5022539;28;20189;-73
2023/03/08 04:45:15;;;;;;;11.07;7.80;;;3.70;99.90;;;;;;5024473;28;20554;-73
2023/03/08 04:47:40;;;;;;;10.90;7.50;;;3.80;99.90;;;;;;5023873;28;20196;-73
2023/03/08 04:50:07;;;;;;;15.30;7.33;;;3.90;99.90;;;;;;5020874;28;20803;-73
2023/03/08 04:52:32;;;;;;;18.30;7.40;;;3.80;99.90;;;;;;5021033;28;20202;-73
2023/03/08 04:54:57;;;;;;;13.33;7.77;;;3.80;99.90;;;;;;5023626;28;22828;-73
2023/03/08 04:57:23;;;;;;;15.00;8.13;;;3.80;99.90;;;;;;5024419;28;20604;-73
2023/03/08 04:59:49;;;;;;;16.30;8.07;;;3.80;99.90;;;;;;5022882;28;20196;-73
2023/03/08 05:02:14;;;;;;;15.50;8.60;;;3.80;99.90;;;;;;5021487;28;20213;-74
2023/03/08 05:04:40;;;;;;;12.97;8.27;;;3.90;99.90;;;;;;5018887;28;20291;-72
2023/03/08 05:07:05;;;;;;;11.93;7.30;;;4.00;99.90;;;;;;5016406;28;20194;-74
2023/03/08 05:09:31;;;;;;;11.10;8.20;;;4.00;99.90;;;;;;5024148;28;20398;-70
2023/03/08 05:11:58;;;;;;;13.27;8.23;;;4.00;99.90;;;;;;5021690;28;20223;-73
2023/03/08 05:14:23;;;;;;;13.17;8.33;;;3.90;99.90;;;;;;5020581;28;20195;-75
2023/03/08 05:16:49;;;;;;;17.33;9.10;;;4.00;99.90;;;;;;5021777;28;20403;-73
2023/03/08 05:19:14;;;;;;;10.40;7.70;;;4.00;99.90;;;;;;5024359;28;20198;-72
2023/03/08 05:21:40;;;;;;;15.63;8.27;;;4.00;99.90;;;;;;5023744;28;20211;-71
2023/03/08 05:24:06;;;;;;;14.20;7.87;;;4.00;99.90;;;;;;5020648;28;20187;-71
2023/03/08 05:26:31;;;;;;;12.57;7.30;;;4.10;99.90;;;;;;5020802;28;20273;-71
2023/03/08 05:29:00;;;;;;;14.47;8.70;;;4.10;99.90;;;;;;5022565;28;20214;-74
2023/03/08 05:31:26;;;;;;;15.13;8.63;;;4.10;99.90;;;;;;5023682;28;20712;-71
2023/03/08 05:33:52;;;;;;;15.20;8.60;;;4.10;99.90;;;;;;5023394;28;20427;-71
2023/03/08 05:36:18;;;;;;;12.70;8.17;;;4.10;99.90;;;;;;5023960;28;20185;-71
2023/03/08 05:38:44;;;;;;;16.83;9.53;;;4.10;99.90;;;;;;5023281;28;20435;-71
2023/03/08 05:41:16;;;;;;;13.47;8.57;;;4.20;99.90;;;;;;5023952;28;20463;-72
2023/03/08 05:43:41;;;;;;;13.87;8.30;;;4.20;99.90;;;;;;5015772;28;20260;-71
2023/03/08 05:46:13;;;;;;;18.13;9.33;;;4.30;99.90;;;;;;5031522;28;20432;-71
2023/03/08 05:48:39;;;;;;;15.17;9.03;;;4.30;99.90;;;;;;5016000;28;20328;-71
2023/03/08 05:51:12;;;;;;;11.30;7.37;;;4.30;99.90;;;;;;5020036;28;20447;-71
2023/03/08 05:53:38;;;;;;;12.67;7.50;;;4.40;99.90;;;;;;5027420;28;20774;-72
2023/03/08 05:56:22;;;;;;;13.70;8.37;;;4.40;99.90;;;;;;5031252;28;20427;-71
2023/03/08 05:58:48;;;;;;;11.37;7.73;;;4.50;99.90;;;;;;5016128;28;20193;-71
2023/03/08 06:01:25;;;;;;;16.90;8.67;;;4.50;99.90;;;;;;5028019;28;20445;-71
2023/03/08 06:03:56;;;;;;;16.30;8.93;;;4.50;99.90;;;;;;5014528;28;20472;-71
2023/03/08 06:06:24;;;;;;;18.27;9.17;;;4.50;99.90;;;;;;5024386;28;20433;-72
2023/03/08 06:08:50;;;;;;;14.70;7.73;;;4.50;99.90;;;;;;5031864;28;21002;-72
2023/03/08 06:11:16;;;;;;;12.53;7.93;;;4.60;99.90;;;;;;5031803;28;20451;-72
2023/03/08 06:13:41;;;;;;;21.10;9.40;;;4.60;99.90;;;;;;5031945;28;20563;-73
2023/03/08 06:16:08;;;;;;;13.90;8.63;;;4.60;99.90;;;;;;5031114;28;20432;-72
2023/03/08 06:18:38;;;;;;;14.53;9.03;;;4.60;99.90;;;;;;5023800;28;20194;-72
2023/03/08 06:21:23;;;;;;;14.50;9.20;;;4.60;99.90;;;;;;5014584;28;20453;-72
2023/03/08 06:23:49;;;;;;;14.10;9.23;;;4.70;99.90;;;;;;5016135;28;20441;-72
2023/03/08 06:26:15;;;;;;;17.73;9.53;;;4.70;99.90;;;;;;5011814;28;20421;-71
2023/03/08 06:28:41;;;;;;;15.80;9.27;;;4.70;99.90;;;;;;5011364;28;20220;-72
2023/03/08 06:31:12;;;;;;;15.40;8.77;;;4.70;99.90;;;;;;5005857;28;20468;-72
2023/03/08 06:33:38;;;;;;;19.57;10.83;;;4.80;99.90;;;;;;5007970;28;20810;-75
2023/03/08 06:36:10;;;;;;;14.90;10.03;;;4.80;99.90;;;;;;5017341;28;20432;-72
2023/03/08 06:38:37;;;;;;;17.60;10.60;;;4.80;99.90;;;;;;5017514;28;20186;-71
2023/03/08 06:41:03;;;;;;;21.77;13.17;;;4.80;99.90;;;;;;5019451;28;20481;-71
2023/03/08 06:43:29;;;;;;;18.70;11.80;;;4.80;99.90;;;;;;5020616;28;20472;-71
2023/03/08 06:45:55;;;;;;;18.30;10.80;;;4.80;99.90;;;;;;5019254;28;20472;-71
2023/03/08 06:48:20;;;;;;;16.70;9.60;;;4.80;99.90;;;;;;5017301;28;20216;-71
2023/03/08 06:50:46;;;;;;;17.67;10.57;;;4.80;99.90;;;;;;5017671;28;20222;-70
2023/03/08 06:53:12;;;;;;;17.60;11.00;;;4.90;99.90;;;;;;5010573;28;20600;-72
2023/03/08 06:55:39;;;;;;;19.30;11.77;;;5.00;99.90;;;;;;5019557;28;20774;-72
2023/03/08 06:58:05;;;;;;;29.10;17.10;;;5.00;99.90;;;;;;5021244;28;20476;-73
2023/03/08 07:00:31;;;;;;;15.57;10.63;;;5.00;99.90;;;;;;5022187;28;20442;-73
2023/03/08 07:02:57;;;;;;;20.83;11.47;;;5.00;99.90;;;;;;5020795;28;20900;-73
2023/03/08 07:05:22;;;;;;;17.03;11.50;;;5.10;99.90;;;;;;5018972;28;20187;-73
2023/03/08 07:07:48;;;;;;;19.57;11.00;;;5.10;99.90;;;;;;5019091;28;20644;-73
2023/03/08 07:10:16;;;;;;;15.70;10.50;;;5.10;99.90;;;;;;5021993;28;20259;-73
2023/03/08 07:12:45;;;;;;;21.17;12.63;;;5.20;99.90;;;;;;5022423;28;21026;-73
2023/03/08 07:15:15;;;;;;;21.10;10.90;;;5.20;99.90;;;;;;5018705;28;20999;-73
2023/03/08 07:17:41;;;;;;;15.90;11.43;;;5.30;99.90;;;;;;5019131;28;20932;-74
2023/03/08 07:20:10;;;;;;;22.53;11.13;;;5.30;99.90;;;;;;5021025;28;20431;-73
2023/03/08 07:22:36;;;;;;;21.17;11.90;;;5.30;99.90;;;;;;5021525;28;20527;-71
2023/03/08 07:25:01;;;;;;;20.00;12.17;;;5.30;99.90;;;;;;5020170;28;20980;-73
2023/03/08 07:27:27;;;;;;;24.03;11.90;;;5.30;99.90;;;;;;5019062;28;20187;-71
2023/03/08 07:29:52;;;;;;;18.73;10.97;;;5.30;99.90;;;;;;5018934;28;20223;-72
2023/03/08 07:32:18;;;;;;;19.83;11.47;;;5.40;99.90;;;;;;5022292;28;20215;-72
2023/03/08 07:34:44;;;;;;;15.30;10.30;;;5.40;99.90;;;;;;5014790;28;20262;-72
2023/03/08 07:37:15;;;;;;;23.50;12.17;;;5.40;99.90;;;;;;5013919;28;20190;-73
2023/03/08 07:39:41;;;;;;;19.00;11.33;;;5.40;99.90;;;;;;5021980;28;20191;-73
2023/03/08 07:42:08;;;;;;;16.00;11.57;;;5.40;99.90;;;;;;5019398;28;20457;-74
2023/03/08 07:44:35;;;;;;;17.50;11.60;;;5.40;99.90;;;;;;5019064;28;20456;-74
2023/03/08 07:47:01;;;;;;;21.37;11.77;;;5.50;99.90;;;;;;5020227;28;20438;-73
2023/03/08 07:49:27;;;;;;;18.20;10.97;;;5.50;99.90;;;;;;5022214;28;20481;-73
2023/03/08 07:51:52;;;;;;;20.50;11.90;;;5.50;99.90;;;;;;5021160;28;20247;-73
2023/03/08 07:54:18;;;;;;;18.33;11.20;;;5.50;99.90;;;;;;5018609;28;20178;-73
2023/03/08 07:56:43;;;;;;;16.03;11.20;;;5.50;99.90;;;;;;5018560;28;20198;-72
2023/03/08 07:59:09;;;;;;;15.50;10.57;;;5.50;99.90;;;;;;5021084;28;20270;-72
2023/03/08 08:01:35;;;;;;;23.73;11.90;;;5.50;99.90;;;;;;5021871;28;20268;-73
2023/03/08 08:04:00;;;;;;;15.63;9.97;;;5.60;99.90;;;;;;5020154;28;20739;-72
2023/03/08 08:06:27;;;;;;;16.17;11.47;;;5.70;99.90;;;;;;5010612;28;20179;-72
2023/03/08 08:08:54;;;;;;;19.60;11.80;;;5.70;99.90;;;;;;5018376;28;20240;-72
2023/03/08 08:11:19;;;;;;;20.70;13.03;;;5.70;99.90;;;;;;5025896;28;20445;-73
2023/03/08 08:13:48;;;;;;;20.00;12.37;;;5.70;99.90;;;;;;5024604;28;20575;-72
2023/03/08 08:16:15;;;;;;;19.07;11.33;;;5.80;99.90;;;;;;5013389;28;20186;-72
2023/03/08 08:18:41;;;;;;;16.20;10.60;;;5.70;99.90;;;;;;5030589;28;20441;-72
2023/03/08 08:21:10;;;;;;;18.50;11.77;;;5.70;99.90;;;;;;5022579;28;20458;-72
2023/03/08 08:23:36;;;;;;;17.10;11.27;;;5.70;99.90;;;;;;5021862;28;20426;-72
2023/03/08 08:26:07;;;;;;;18.17;10.13;;;5.70;99.90;;;;;;5022873;28;20795;-72
2023/03/08 08:28:33;;;;;;;13.67;9.70;;;5.70;99.90;;;;;;5025216;28;21043;-72
2023/03/08 08:31:04;;;;;;;21.87;11.50;;;5.80;99.90;;;;;;5023347;28;20491;-73
2023/03/08 08:33:31;;;;;;;23.13;9.90;;;5.70;99.90;;;;;;5021840;28;20519;-72
2023/03/08 08:35:56;;;;;;;14.70;10.40;;;5.70;99.90;;;;;;5021532;28;20451;-72
2023/03/08 08:38:23;;;;;;;20.03;8.43;;;5.70;99.90;;;;;;5020945;28;20433;-72
2023/03/08 08:40:48;;;;;;;15.70;9.83;;;5.80;99.90;;;;;;5020735;28;20354;-73
2023/03/08 08:43:14;;;;;;;21.70;11.93;;;5.80;99.90;;;;;;5021449;28;20523;-72
2023/03/08 08:45:44;;;;;;;17.47;10.50;;;5.80;99.90;;;;;;5021471;28;20187;-73
2023/03/08 08:48:10;;;;;;;21.57;9.77;;;5.80;99.90;;;;;;5021057;28;20193;-72
2023/03/08 08:50:37;;;;;;;11.97;8.53;;;5.80;99.90;;;;;;5026796;28;20810;-71
2023/03/08 08:53:03;;;;;;;15.03;10.80;;;5.70;99.90;;;;;;5022831;28;20240;-73
2023/03/08 08:55:29;;;;;;;13.67;9.90;;;5.70;99.90;;;;;;5021231;28;20448;-73
2023/03/08 08:57:54;;;;;;;18.87;9.50;;;5.70;99.90;;;;;;5029129;28;20434;-72
2023/03/08 09:00:20;;;;;;;13.53;9.40;;;5.70;99.90;;;;;;5020660;28;20205;-73
2023/03/08 09:02:46;;;;;;;16.83;10.43;;;5.70;99.90;;;;;;5028247;28;20186;-73
2023/03/08 09:05:11;;;;;;;14.17;10.33;;;5.60;99.90;;;;;;5023969;28;20194;-72
2023/03/08 09:07:37;;;;;;;16.13;10.23;;;5.70;99.90;;;;;;5025557;28;20193;-72
2023/03/08 09:10:02;;;;;;;18.10;9.03;;;5.70;99.90;;;;;;5020254;28;20215;-72
2023/03/08 09:12:28;;;;;;;19.10;10.83;;;5.70;99.90;;;;;;5025518;28;20626;-73
2023/03/08 09:14:54;;;;;;;18.87;9.87;;;5.80;99.90;;;;;;5024013;28;20262;-71
2023/03/08 09:17:19;;;;;;;18.83;10.70;;;5.90;99.90;;;;;;5014969;28;20540;-72
2023/03/08 09:19:45;;;;;;;18.23;10.90;;;6.00;99.90;;;;;;5025161;28;20196;-73
2023/03/08 09:22:10;;;;;;;18.97;11.57;;;6.00;99.90;;;;;;5022467;28;20215;-73
2023/03/08 09:24:36;;;;;;;21.70;12.43;;;5.90;99.90;;;;;;5024208;28;20197;-73
2023/03/08 09:27:04;;;;;;;19.27;10.77;;;5.90;99.90;;;;;;5022884;28;20577;-74
2023/03/08 09:29:30;;;;;;;20.23;10.93;;;5.90;99.90;;;;;;5017629;28;20254;-73
2023/03/08 09:31:55;;;;;;;18.63;10.60;;;5.90;99.90;;;;;;5022776;28;20495;-72
2023/03/08 09:34:21;;;;;;;15.60;10.20;;;6.00;99.90;;;;;;5008076;28;20192;-74
2023/03/08 09:36:46;;;;;;;17.13;11.30;;;6.00;99.90;;;;;;5024091;28;20196;-74
2023/03/08 09:39:12;;;;;;;20.17;10.90;;;6.10;99.90;;;;;;5023361;28;20274;-74
2023/03/08 09:41:55;;;;;;;16.63;11.20;;;6.10;99.90;;;;;;5023697;28;20235;-73
2023/03/08 09:44:29;;;;;;;19.83;11.17;;;6.10;99.90;;;;;;5020266;28;20483;-74
2023/03/08 09:47:04;;;;;;;27.60;12.77;;;6.20;99.90;;;;;;5028436;28;20413;-74
2023/03/08 09:49:31;;;;;;;21.73;12.60;;;6.20;99.90;;;;;;5010100;28;20891;-73
2023/03/08 09:52:42;;;;;;;21.43;11.70;;;6.20;99.90;;;;;;5023183;28;20811;-71
2023/03/08 09:55:17;;;;;;;17.10;10.30;;;6.30;99.90;;;;;;4999569;28;20529;-73
2023/03/08 09:57:54;;;;;;;18.00;11.90;;;6.40;99.90;;;;;;5023744;28;20433;-74
2023/03/08 10:00:27;;;;;;;17.17;10.50;;;6.50;99.90;;;;;;5019742;28;20428;-73
2023/03/08 10:03:22;;;;;;;16.30;10.77;;;6.60;99.90;;;;;;5019777;28;20495;-74
2023/03/08 10:05:54;;;;;;;19.70;11.33;;;6.60;99.90;;;;;;5015509;28;20444;-74
2023/03/08 10:08:24;;;;;;;19.77;10.60;;;6.70;99.90;;;;;;5027733;28;20417;-74
2023/03/08 10:11:03;;;;;;;19.03;10.93;;;6.80;99.90;;;;;;5019630;28;20935;-74
2023/03/08 10:13:36;;;;;;;19.20;11.30;;;6.90;99.90;;;;;;5020009;28;20427;-74
2023/03/08 10:16:09;;;;;;;24.03;11.53;;;7.10;99.90;;;;;;5020195;28;20488;-73
2023/03/08 10:18:44;;;;;;;17.80;10.87;;;7.10;99.90;;;;;;5023344;28;20423;-74
2023/03/08 10:21:16;;;;;;;19.27;10.57;;;7.30;99.90;;;;;;5022380;28;20444;-74
2023/03/08 10:23:44;;;;;;;13.50;7.70;;;7.50;99.90;;;;;;5016400;28;20428;-74
2023/03/08 10:26:12;;;;;;;12.20;7.27;;;7.60;99.90;;;;;;5020832;28;20946;-74
2023/03/08 10:28:38;;;;;;;9.30;5.33;;;7.70;99.90;;;;;;5023070;28;20472;-73
2023/03/08 10:31:27;;;;;;;6.77;4.83;;;7.90;99.90;;;;;;5022020;28;20453;-74
2023/03/08 10:34:07;;;;;;;7.47;5.13;;;8.10;99.90;;;;;;5022940;28;20189;-73
2023/03/08 10:36:33;;;;;;;8.13;5.77;;;8.30;99.90;;;;;;5012668;28;20422;-73
2023/03/08 10:39:08;;;;;;;6.00;4.57;;;8.50;99.90;;;;;;5019594;28;20415;-73
2023/03/08 10:41:47;;;;;;;7.33;5.10;;;8.90;99.90;;;;;;5008956;28;20836;-73
2023/03/08 10:44:29;;;;;;;8.60;5.10;;;9.30;99.90;;;;;;5018280;28;20463;-73
2023/03/08 10:46:54;;;;;;;6.80;4.50;;;9.50;99.90;;;;;;5014904;28;20432;-73
2023/03/08 10:49:23;;;;;;;5.13;4.33;;;9.70;99.90;;;;;;5019514;28;21042;-72
2023/03/08 10:51:57;;;;;;;6.17;4.60;;;9.90;99.90;;;;;;5019092;28;20630;-74
2023/03/08 10:54:24;;;;;;;5.20;4.07;;;10.00;99.90;;;;;;5019403;28;20442;-74
2023/03/08 10:56:56;;;;;;;6.43;4.17;;;10.00;99.90;;;;;;5018076;28;20432;-74
2023/03/08 10:59:31;;;;;;;6.43;4.17;;;10.20;99.90;;;;;;5010966;28;20796;-74
2023/03/08 11:02:01;;;;;;;7.53;3.30;;;10.50;99.90;;;;;;5019244;28;21020;-74
2023/03/08 11:04:28;;;;;;;4.13;3.50;;;10.70;99.90;;;;;;5011215;28;20441;-74
2023/03/08 11:06:54;;;;;;;3.50;3.00;;;11.00;99.90;;;;;;5019183;28;20436;-74
2023/03/08 11:09:28;;;;;;;2.43;2.10;;;11.30;99.90;;;;;;5021041;28;20461;-74
2023/03/08 11:11:55;;;;;;;2.43;2.23;;;11.30;99.90;;;;;;5022237;28;20205;-74
2023/03/08 11:14:21;;;;;;;2.23;2.00;;;11.40;99.90;;;;;;5019175;28;20433;-74
2023/03/08 11:16:50;;;;;;;2.50;1.90;;;11.50;99.90;;;;;;5017409;28;20436;-74
2023/03/08 11:19:35;;;;;;;1.80;1.30;;;11.60;99.90;;;;;;5021801;28;20441;-74
2023/03/08 11:22:06;;;;;;;0.87;0.87;;;11.60;99.90;;;;;;5022378;28;20456;-74
2023/03/08 11:24:54;;;;;;;0.80;0.80;;;11.60;99.90;;;;;;5011604;28;20479;-74
2023/03/08 11:27:29;;;;;;;1.10;1.00;;;11.70;99.90;;;;;;5020996;28;20961;-73
2023/03/08 11:30:06;;;;;;;1.33;0.93;;;11.60;99.90;;;;;;5021947;28;20891;-74
2023/03/08 11:32:50;;;;;;;0.70;0.70;;;11.50;99.90;;;;;;5011286;28;20453;-74
2023/03/08 11:35:30;;;;;;;1.10;0.60;;;11.30;99.90;;;;;;5018609;28;20417;-74
2023/03/08 11:38:12;;;;;;;0.90;0.90;;;11.30;99.90;;;;;;5018853;28;20968;-74
2023/03/08 11:41:05;;;;;;;0.80;0.70;;;11.30;99.90;;;;;;5011726;28;20471;-74
2023/03/08 11:43:33;;;;;;;0.67;0.67;;;11.40;99.90;;;;;;5011096;28;20430;-74
2023/03/08 11:46:57;;;;;;;3.77;1.00;;;11.40;99.90;;;;;;5018874;28;20941;-74
2023/03/08 11:49:37;;;;;;;0.70;0.70;;;11.50;99.90;;;;;;4948835;28;20475;-74
2023/03/08 11:52:21;;;;;;;2.67;0.70;;;11.60;99.90;;;;;;5018712;28;20449;-74
2023/03/08 11:55:20;;;;;;;1.53;0.77;;;11.70;99.90;;;;;;5015593;28;20425;-74
2023/03/08 11:58:00;;;;;;;1.10;0.70;;;11.60;99.90;;;;;;5016878;28;20429;-74
2023/03/08 12:00:47;;;;;;;2.30;0.80;;;11.60;99.90;;;;;;5024546;28;20440;-72
2023/03/08 12:03:17;;;;;;;1.40;0.60;;;11.60;99.90;;;;;;5024001;28;20432;-74
2023/03/08 12:05:55;;;;;;;0.67;0.60;;;11.60;99.90;;;;;;5022307;28;20441;-75
2023/03/08 12:08:27;;;;;;;2.20;0.70;;;11.60;99.90;;;;;;5023991;28;20444;-75
2023/03/08 12:10:57;;;;;;;0.97;0.90;;;11.70;99.90;;;;;;5025177;28;20458;-75
2023/03/08 12:13:33;;;;;;;0.80;0.70;;;11.60;99.90;;;;;;5024980;28;20478;-75
2023/03/08 12:16:01;;;;;;;1.10;0.60;;;11.70;99.90;;;;;;5025587;28;20463;-74
2023/03/08 12:18:50;;;;;;;1.00;0.80;;;11.90;99.90;;;;;;5016905;28;20523;-74
2023/03/08 12:21:15;;;;;;;0.60;0.60;;;11.90;99.90;;;;;;5022955;28;20440;-74
2023/03/08 12:23:56;;;;;;;2.73;0.70;;;11.90;99.90;;;;;;5013588;28;20429;-75
2023/03/08 12:26:35;;;;;;;1.60;0.73;;;12.00;99.90;;;;;;5021136;28;20203;-75
2023/03/08 12:29:10;;;;;;;0.70;0.60;;;12.10;99.90;;;;;;5021342;28;21231;-71
2023/03/08 12:31:41;;;;;;;1.87;0.60;;;12.10;99.90;;;;;;5013984;28;20531;-74
2023/03/08 12:34:43;;;;;;;0.90;0.67;;;12.10;99.90;;;;;;5021553;28;20438;-73
2023/03/08 12:37:24;;;;;;;2.00;0.80;;;12.20;99.90;;;;;;5024741;28;20824;-74
2023/03/08 12:40:07;;;;;;;2.60;0.60;;;12.20;99.90;;;;;;5024637;28;20434;-74
2023/03/08 12:42:37;;;;;;;0.70;0.70;;;12.20;99.90;;;;;;5013568;28;20488;-75
2023/03/08 12:45:18;;;;;;;0.70;0.70;;;12.20;99.90;;;;;;5021226;28;20429;-73
2023/03/08 12:47:55;;;;;;;2.40;0.90;;;12.20;99.90;;;;;;5010720;28;20437;-74
2023/03/08 12:50:23;;;;;;;14.10;0.90;;;12.40;99.90;;;;;;5018145;28;20476;-73
2023/03/08 12:52:49;;;;;;;19.80;1.00;;;12.40;99.90;;;;;;5023944;28;20931;-74
2023/03/08 12:55:20;;;;;;;9.40;1.00;;;12.60;99.90;;;;;;5023138;28;20424;-74
2023/03/08 12:57:52;;;;;;;8.80;0.90;;;12.80;99.90;;;;;;5021307;28;20667;-74
2023/03/08 13:00:32;;;;;;;3.20;0.70;;;12.90;99.90;;;;;;5019108;28;20441;-74
2023/03/08 13:03:12;;;;;;;4.47;0.80;;;13.00;99.90;;;;;;5023919;28;20432;-75
2023/03/08 13:05:39;;;;;;;2.80;0.73;;;13.00;99.90;;;;;;5009708;28;20474;-74
2023/03/08 13:08:15;;;;;;;0.93;0.80;;;13.00;99.90;;;;;;5024676;28;20421;-75
2023/03/08 13:10:49;;;;;;;8.27;0.73;;;13.10;99.90;;;;;;5013731;28;20429;-75
2023/03/08 13:13:22;;;;;;;1.43;1.20;;;13.10;99.90;;;;;;5028726;28;20460;-74
2023/03/08 13:15:48;;;;;;;18.80;0.80;;;13.20;99.90;;;;;;5021009;28;20438;-74
2023/03/08 13:18:18;;;;;;;11.77;1.70;;;13.30;99.90;;;;;;5031491;28;20428;-75
2023/03/08 13:20:49;;;;;;;11.87;0.93;;;13.30;99.90;;;;;;5024331;28;20213;-75
2023/03/08 13:23:36;;;;;;;4.40;0.83;;;13.40;99.90;;;;;;5022900;28;20431;-75
2023/03/08 13:26:08;;;;;;;7.27;0.80;;;13.60;99.90;;;;;;5021034;28;20487;-74
2023/03/08 13:28:39;;;;;;;0.90;0.73;;;13.80;99.90;;;;;;5022542;28;20460;-75
2023/03/08 13:31:25;;;;;;;1.27;1.00;;;13.80;99.90;;;;;;5023681;28;20509;-74
2023/03/08 13:33:53;;;;;;;0.87;0.50;;;13.90;99.90;;;;;;5014907;28;20792;-74
2023/03/08 13:36:21;;;;;;;0.70;0.60;;;13.80;99.90;;;;;;5013408;28;20432;-74
2023/03/08 13:39:19;;;;;;;1.83;0.90;;;13.80;99.90;;;;;;5023071;28;20498;-74
2023/03/08 13:41:46;;;;;;;2.00;0.50;;;13.60;99.90;;;;;;5031822;28;20850;-74
2023/03/08 13:44:23;;;;;;;0.60;0.60;;;13.50;99.90;;;;;;5031889;28;20998;-74
2023/03/08 13:46:55;;;;;;;1.60;0.80;;;13.50;99.90;;;;;;5032138;28;20436;-75
2023/03/08 13:49:25;;;;;;;2.30;0.70;;;13.70;99.90;;;;;;5031527;28;20460;-74
2023/03/08 13:51:53;;;;;;;1.07;0.60;;;13.80;99.90;;;;;;5018358;28;20802;-74
2023/03/08 13:54:28;;;;;;;1.37;0.80;;;13.70;99.90;;;;;;5013880;28;20773;-75
2023/03/08 13:57:01;;;;;;;1.00;0.90;;;13.60;99.90;;;;;;5019523;28;20443;-74
2023/03/08 13:59:27;;;;;;;3.87;0.80;;;13.30;99.90;;;;;;5031470;28;20409;-74
2023/03/08 14:01:53;;;;;;;4.37;0.80;;;13.30;99.90;;;;;;5031570;28;20781;-74
2023/03/08 14:04:22;;;;;;;12.30;1.20;;;13.30;99.90;;;;;;5014241;28;20559;-74
2023/03/08 14:06:50;;;;;;;3.27;1.07;;;13.20;99.90;;;;;;5011176;28;20410;-74
2023/03/08 14:09:17;;;;;;;2.97;0.80;;;13.30;99.90;;;;;;5027467;28;20460;-75
2023/03/08 14:11:43;;;;;;;3.67;0.70;;;13.40;99.90;;;;;;5031193;28;20436;-74
2023/03/08 14:14:26;;;;;;;0.60;0.60;;;13.50;99.90;;;;;;5031724;28;20425;-75
2023/03/08 14:16:53;;;;;;;0.60;0.60;;;13.60;99.90;;;;;;5031234;28;20647;-75
2023/03/08 14:19:39;;;;;;;2.03;0.50;;;13.60;99.90;;;;;;5015004;28;20945;-72
2023/03/08 14:22:12;;;;;;;2.30;0.70;;;13.60;99.90;;;;;;5024408;28;20429;-75
2023/03/08 14:24:41;;;;;;;0.70;0.50;;;13.60;99.90;;;;;;5015290;28;20525;-75
2023/03/08 14:27:15;;;;;;;4.87;0.60;;;13.40;99.90;;;;;;5024128;28;20933;-74
2023/03/08 14:29:43;;;;;;;7.73;0.60;;;13.40;99.90;;;;;;5008219;28;20522;-74